Time;durP1;ratioP1;P1;durP2;ratioP2;P2;SDS_P1;SDS_P2;PMS_P1;PMS_P2;Temp;Humidity;BMP_temperature;BMP_pressure;BME280_temperature;BME280_humidity;BME280_pressure;Samples;Min_cycle;Max_cycle;Signal;HPM_P1;HPM_P2
2023/12/06 00:00:27;;;;;;;13.40;10.97;;;3.90;78.50;1.90;95728.00;;;;5038942;28;20459;-78
2023/12/06 00:02:55;;;;;;;11.83;9.43;;;3.80;78.50;2.00;95728.00;;;;5040641;28;20202;-78
2023/12/06 00:05:22;;;;;;;12.37;9.90;;;3.90;79.20;2.00;95722.00;;;;5041353;28;20475;-78
2023/12/06 00:07:49;;;;;;;12.20;9.57;;;3.90;78.50;2.10;95732.00;;;;5034890;28;20208;-79
2023/12/06 00:10:17;;;;;;;10.87;9.10;;;3.90;78.50;2.10;95728.00;;;;5033686;28;20674;-78
2023/12/06 00:12:45;;;;;;;14.97;9.83;;;4.00;78.60;2.20;95724.00;;;;5032219;28;20193;-78
2023/12/06 00:15:15;;;;;;;12.30;9.87;;;4.00;78.60;2.20;95735.00;;;;5032214;28;20209;-78
2023/12/06 00:17:42;;;;;;;12.90;9.93;;;4.10;78.70;2.30;95729.00;;;;5032828;28;20193;-78
2023/12/06 00:20:11;;;;;;;10.37;9.27;;;4.10;78.70;2.30;95731.00;;;;5035085;28;20586;-78
2023/12/06 00:22:39;;;;;;;13.03;9.80;;;4.20;78.70;2.40;95727.00;;;;5035318;28;20204;-78
2023/12/06 00:25:08;;;;;;;13.00;9.87;;;4.20;78.70;2.40;95729.00;;;;5010542;28;20221;-78
2023/12/06 00:27:35;;;;;;;13.00;9.70;;;4.30;78.80;2.50;95721.00;;;;5035102;28;20734;-78
2023/12/06 00:30:06;;;;;;;11.33;9.03;;;4.30;78.80;2.50;95730.00;;;;5033983;28;20224;-78
2023/12/06 00:32:33;;;;;;;15.00;9.70;;;4.40;78.80;2.60;95731.00;;;;5032815;28;20261;-78
2023/12/06 00:35:00;;;;;;;9.70;8.47;;;4.40;78.90;2.60;95724.00;;;;5033939;28;20296;-78
2023/12/06 00:37:29;;;;;;;10.20;8.00;;;4.50;79.00;2.70;95718.00;;;;5033263;28;20277;-78
2023/12/06 00:39:56;;;;;;;9.97;8.47;;;4.50;78.50;2.70;95716.00;;;;5028927;28;20843;-78
2023/12/06 00:42:23;;;;;;;11.33;8.53;;;4.50;79.00;2.80;95724.00;;;;5036027;28;20198;-78
2023/12/06 00:44:50;;;;;;;11.53;8.90;;;4.60;79.00;2.80;95724.00;;;;5031479;28;20205;-79
2023/12/06 00:47:19;;;;;;;11.60;9.20;;;4.60;79.00;2.80;95718.00;;;;5038250;28;20674;-79
2023/12/06 00:49:47;;;;;;;14.00;10.03;;;4.60;78.80;2.90;95729.00;;;;5037445;28;20205;-78
2023/12/06 00:52:14;;;;;;;11.57;9.60;;;4.70;78.90;2.90;95725.00;;;;5020763;28;20201;-78
2023/12/06 00:54:41;;;;;;;11.10;8.93;;;4.70;78.90;2.90;95731.00;;;;5038236;28;20204;-79
2023/12/06 00:57:08;;;;;;;11.77;8.53;;;4.70;78.80;2.90;95726.00;;;;5038254;28;20296;-79
2023/12/06 00:59:36;;;;;;;12.97;9.63;;;4.80;78.90;3.00;95730.00;;;;5036932;28;20201;-78
2023/12/06 01:02:03;;;;;;;10.70;8.57;;;4.80;79.00;3.00;95733.00;;;;5037892;28;20213;-78
2023/12/06 01:04:32;;;;;;;11.60;8.83;;;4.80;79.00;3.10;95735.00;;;;5039911;28;20236;-78
2023/12/06 01:06:59;;;;;;;11.43;8.80;;;4.90;79.00;3.10;95736.00;;;;5040268;28;20309;-79
2023/12/06 01:09:26;;;;;;;11.80;8.47;;;4.90;79.00;3.10;95733.00;;;;5038597;28;20200;-79
2023/12/06 01:11:54;;;;;;;9.53;7.63;;;4.90;78.90;3.20;95737.00;;;;5038518;28;20220;-79
2023/12/06 01:14:22;;;;;;;9.97;7.90;;;5.00;79.00;3.20;95741.00;;;;5024268;28;20235;-79
2023/12/06 01:16:49;;;;;;;11.67;9.10;;;5.00;79.00;3.30;95740.00;;;;5037449;28;20280;-77
2023/12/06 01:19:17;;;;;;;11.43;8.87;;;5.00;79.00;3.30;95740.00;;;;5060338;28;20189;-77
2023/12/06 01:21:45;;;;;;;12.97;9.23;;;5.10;79.10;3.30;95741.00;;;;5059016;28;20236;-78
2023/12/06 01:24:12;;;;;;;12.17;9.43;;;5.10;78.90;3.40;95750.00;;;;5059530;28;20201;-76
2023/12/06 01:26:40;;;;;;;10.63;8.27;;;5.10;78.90;3.40;95749.00;;;;5058678;28;20315;-76
2023/12/06 01:29:08;;;;;;;10.73;9.10;;;5.20;79.00;3.40;95748.00;;;;5057267;28;20189;-77
2023/12/06 01:31:35;;;;;;;11.50;9.27;;;5.20;79.10;3.50;95750.00;;;;5040955;28;20279;-79
2023/12/06 01:34:02;;;;;;;10.80;8.83;;;5.20;79.00;3.50;95751.00;;;;5035828;28;20685;-79
2023/12/06 01:36:30;;;;;;;9.93;8.10;;;5.30;79.10;3.50;95750.00;;;;5035155;28;20729;-79
2023/12/06 01:38:58;;;;;;;11.57;8.60;;;5.30;79.10;3.60;95751.00;;;;5035534;28;20662;-78
2023/12/06 01:41:26;;;;;;;10.43;8.20;;;5.30;79.10;3.60;95754.00;;;;5036562;28;20279;-78
2023/12/06 01:43:53;;;;;;;11.03;8.20;;;5.30;79.10;3.60;95758.00;;;;5037779;28;20198;-78
2023/12/06 01:46:20;;;;;;;9.13;7.50;;;5.40;79.30;3.70;95748.00;;;;5036593;28;20217;-79
2023/12/06 01:48:49;;;;;;;9.77;7.03;;;5.40;79.40;3.70;95753.00;;;;5039582;28;20323;-78
2023/12/06 01:51:18;;;;;;;7.17;5.80;;;5.40;79.40;3.80;95748.00;;;;5039141;28;20228;-79
2023/12/06 01:53:46;;;;;;;5.67;5.17;;;5.50;79.50;3.80;95748.00;;;;5037820;28;20197;-79
2023/12/06 01:56:18;;;;;;;5.13;4.60;;;5.50;79.50;3.80;95753.00;;;;5038227;28;20599;-79
2023/12/06 01:58:45;;;;;;;5.60;3.80;;;5.60;79.50;3.90;95753.00;;;;5040037;28;20576;-79
2023/12/06 02:01:13;;;;;;;4.50;3.50;;;5.60;79.80;4.00;95741.00;;;;5041143;28;20421;-79
2023/12/06 02:03:40;;;;;;;4.27;2.93;;;5.70;79.90;4.00;95751.00;;;;5041660;28;20205;-79
2023/12/06 02:06:09;;;;;;;2.73;2.37;;;5.70;80.00;4.10;95753.00;;;;5033719;28;20230;-79
2023/12/06 02:08:41;;;;;;;2.73;2.50;;;5.80;80.20;4.20;95757.00;;;;5037412;28;20629;-79
2023/12/06 02:11:08;;;;;;;2.40;2.20;;;5.90;80.20;4.20;95764.00;;;;5040495;28;20663;-79
2023/12/06 02:13:37;;;;;;;2.53;2.00;;;5.90;80.00;4.30;95761.00;;;;5021692;28;20197;-79
2023/12/06 02:16:07;;;;;;;2.40;2.20;;;5.90;80.00;4.30;95759.00;;;;5040090;28;20205;-79
2023/12/06 02:18:35;;;;;;;2.57;2.30;;;6.00;80.00;4.30;95762.00;;;;5039006;28;20244;-79
2023/12/06 02:21:04;;;;;;;2.20;2.00;;;6.00;79.80;4.40;95757.00;;;;5038482;28;20218;-79
2023/12/06 02:23:36;;;;;;;1.90;1.73;;;6.10;80.00;4.40;95759.00;;;;5039641;28;20288;-79
2023/12/06 02:26:06;;;;;;;1.90;1.70;;;6.10;80.00;4.50;95763.00;;;;5040475;28;20690;-79
2023/12/06 02:28:33;;;;;;;1.50;1.40;;;6.20;80.00;4.60;95761.00;;;;5037647;28;20204;-79
2023/12/06 02:31:01;;;;;;;1.80;1.57;;;6.20;80.00;4.60;95760.00;;;;5035478;28;20225;-79
2023/12/06 02:33:31;;;;;;;1.70;1.43;;;6.30;80.10;4.60;95764.00;;;;5036137;28;20197;-79
2023/12/06 02:36:02;;;;;;;4.03;1.50;;;6.30;80.10;4.70;95767.00;;;;5036307;28;20654;-79
2023/12/06 02:38:31;;;;;;;1.70;1.60;;;6.40;80.10;4.80;95767.00;;;;5037105;28;20650;-79
2023/12/06 02:41:03;;;;;;;1.47;1.37;;;6.40;80.00;4.80;95772.00;;;;5036152;28;20217;-79
2023/12/06 02:43:31;;;;;;;1.97;1.20;;;6.40;80.00;4.80;95775.00;;;;5031819;28;20204;-79
2023/12/06 02:46:00;;;;;;;1.67;1.57;;;6.50;79.90;4.90;95779.00;;;;5035196;28;20228;-79
2023/12/06 02:48:28;;;;;;;1.30;1.20;;;6.50;79.80;4.90;95775.00;;;;5036388;28;20189;-79
2023/12/06 02:50:55;;;;;;;1.70;1.00;;;6.60;79.70;4.90;95769.00;;;;5034354;28;20225;-79
2023/12/06 02:53:22;;;;;;;1.20;1.10;;;6.60;79.70;5.00;95765.00;;;;5036208;28;20217;-79
2023/12/06 02:55:49;;;;;;;1.23;1.00;;;6.60;79.70;5.00;95770.00;;;;5030758;28;20842;-79
2023/12/06 02:58:16;;;;;;;0.90;0.90;;;6.60;79.70;5.00;95776.00;;;;5036152;28;20198;-79
2023/12/06 03:00:45;;;;;;;0.83;0.83;;;6.70;79.80;5.00;95771.00;;;;5036069;28;20308;-79
2023/12/06 03:03:12;;;;;;;0.80;0.80;;;6.70;79.90;5.00;95776.00;;;;5035008;28;20301;-79
2023/12/06 03:05:40;;;;;;;0.70;0.70;;;6.70;79.80;5.10;95778.00;;;;5033770;28;20225;-78
2023/12/06 03:08:07;;;;;;;0.60;0.60;;;6.70;79.90;5.10;95775.00;;;;5033688;28;20204;-79
2023/12/06 03:10:34;;;;;;;0.60;0.60;;;6.70;79.90;5.10;95784.00;;;;5034686;28;20299;-79
2023/12/06 03:13:03;;;;;;;0.80;0.73;;;6.80;80.00;5.10;95779.00;;;;5033856;28;20241;-79
2023/12/06 03:15:30;;;;;;;0.70;0.70;;;6.80;80.00;5.20;95773.00;;;;5021835;28;20217;-79
2023/12/06 03:17:58;;;;;;;0.50;0.50;;;6.80;80.00;5.20;95772.00;;;;5031562;28;20198;-79
2023/12/06 03:20:26;;;;;;;0.40;0.40;;;6.80;80.10;5.20;95774.00;;;;5031478;28;20244;-78
2023/12/06 03:22:53;;;;;;;0.40;0.40;;;6.80;80.20;5.20;95769.00;;;;5032226;28;20224;-79
2023/12/06 03:25:20;;;;;;;0.50;0.50;;;6.80;80.10;5.20;95769.00;;;;5024246;28;20277;-79
2023/12/06 03:27:47;;;;;;;0.87;0.53;;;6.90;80.20;5.20;95771.00;;;;5031704;28;20642;-79
2023/12/06 03:30:14;;;;;;;0.50;0.50;;;6.90;80.20;5.30;95771.00;;;;5030906;28;20316;-78
2023/12/06 03:32:42;;;;;;;0.30;0.30;;;6.90;80.20;5.30;95769.00;;;;5030285;28;20205;-79
2023/12/06 03:35:11;;;;;;;0.87;0.40;;;6.90;80.20;5.30;95778.00;;;;5032798;28;20204;-79
2023/12/06 03:37:38;;;;;;;0.50;0.50;;;6.90;80.20;5.30;95782.00;;;;5032852;28;20193;-79
2023/12/06 03:40:07;;;;;;;0.40;0.40;;;6.90;80.20;5.30;95777.00;;;;5031444;28;20769;-78
2023/12/06 03:42:35;;;;;;;0.47;0.40;;;7.00;80.20;5.30;95770.00;;;;5032568;28;20261;-79
2023/12/06 03:45:02;;;;;;;0.40;0.40;;;6.90;80.20;5.30;95772.00;;;;5026261;28;20291;-79
2023/12/06 03:47:29;;;;;;;0.50;0.50;;;7.00;80.30;5.30;95773.00;;;;5032717;28;20221;-79
2023/12/06 03:49:56;;;;;;;0.50;0.50;;;7.00;80.30;5.40;95772.00;;;;5037883;28;20697;-79
2023/12/06 03:52:25;;;;;;;0.60;0.60;;;7.00;80.30;5.40;95772.00;;;;5037303;28;20228;-79
2023/12/06 03:54:52;;;;;;;0.47;0.40;;;7.00;81.00;5.40;95776.00;;;;5043177;28;21565;-79
2023/12/06 03:57:19;;;;;;;0.50;0.50;;;7.00;80.30;5.40;95783.00;;;;5044517;28;20204;-79
2023/12/06 03:59:46;;;;;;;0.50;0.50;;;7.00;80.40;5.40;95782.00;;;;5053441;28;20231;-78
2023/12/06 04:02:15;;;;;;;0.47;0.47;;;7.00;80.30;5.40;95778.00;;;;5054740;28;20231;-78
2023/12/06 04:04:43;;;;;;;0.53;0.53;;;7.00;80.20;5.40;95781.00;;;;5054800;28;20249;-78
2023/12/06 04:07:10;;;;;;;0.50;0.50;;;7.10;80.20;5.40;95782.00;;;;5055760;28;20248;-79
2023/12/06 04:09:38;;;;;;;0.60;0.60;;;7.10;80.20;5.40;95787.00;;;;5048824;28;20228;-78
2023/12/06 04:12:08;;;;;;;0.63;0.50;;;7.10;80.20;5.40;95783.00;;;;5029554;28;20264;-78
2023/12/06 04:14:35;;;;;;;0.33;0.33;;;7.10;80.20;5.40;95781.00;;;;5021566;28;20225;-78
2023/12/06 04:17:04;;;;;;;0.50;0.50;;;7.10;80.30;5.40;95781.00;;;;5035340;28;20197;-79
2023/12/06 04:19:31;;;;;;;0.50;0.50;;;7.10;80.30;5.40;95787.00;;;;5036138;28;20190;-79
2023/12/06 04:22:01;;;;;;;0.50;0.40;;;7.10;80.30;5.40;95787.00;;;;5036343;28;20224;-79
2023/12/06 04:24:30;;;;;;;0.40;0.40;;;7.10;80.30;5.40;95792.00;;;;5036428;28;20256;-79
2023/12/06 04:26:59;;;;;;;0.60;0.60;;;7.10;80.20;5.40;95785.00;;;;5036479;28;20228;-80
2023/12/06 04:29:26;;;;;;;0.70;0.53;;;7.10;80.90;5.40;95791.00;;;;5038007;28;20272;-80
2023/12/06 04:31:53;;;;;;;0.60;0.60;;;7.10;80.30;5.40;95792.00;;;;5041118;28;20248;-79
2023/12/06 04:34:21;;;;;;;0.60;0.60;;;7.10;80.20;5.40;95793.00;;;;5029812;28;20193;-79
2023/12/06 04:36:48;;;;;;;0.40;0.40;;;7.10;80.20;5.40;95795.00;;;;5037598;28;20685;-79
2023/12/06 04:39:15;;;;;;;0.60;0.53;;;7.10;80.30;5.40;95788.00;;;;5035902;28;20282;-79
2023/12/06 04:41:45;;;;;;;0.60;0.60;;;7.10;80.30;5.50;95792.00;;;;5037940;28;20682;-80
2023/12/06 04:44:14;;;;;;;1.20;0.60;;;7.10;80.30;5.50;95792.00;;;;5030172;28;20212;-80
2023/12/06 04:46:41;;;;;;;1.70;0.80;;;7.10;80.20;5.50;95797.00;;;;5037482;28;20622;-80
2023/12/06 04:49:09;;;;;;;0.50;0.50;;;7.10;80.20;5.50;95800.00;;;;5035450;28;20582;-80
2023/12/06 04:51:36;;;;;;;1.40;0.50;;;7.10;80.20;5.40;95787.00;;;;5036671;28;20209;-80
2023/12/06 04:54:04;;;;;;;0.60;0.60;;;7.10;80.20;5.40;95801.00;;;;5035898;28;20288;-80
2023/12/06 04:56:31;;;;;;;0.87;0.87;;;7.10;80.20;5.40;95805.00;;;;5028319;28;20251;-79
2023/12/06 04:58:58;;;;;;;0.93;0.80;;;7.10;80.20;5.40;95808.00;;;;5033261;28;20244;-80
2023/12/06 05:01:27;;;;;;;0.87;0.87;;;7.10;80.10;5.40;95808.00;;;;5032800;28;20722;-79
2023/12/06 05:03:54;;;;;;;0.90;0.90;;;7.10;80.20;5.40;95807.00;;;;5036253;28;20692;-79
2023/12/06 05:06:21;;;;;;;0.70;0.70;;;7.10;80.20;5.40;95813.00;;;;5030364;28;20294;-79
2023/12/06 05:08:48;;;;;;;0.77;0.77;;;7.10;80.20;5.40;95809.00;;;;5034930;28;20201;-79
2023/12/06 05:11:16;;;;;;;1.77;1.10;;;7.10;80.20;5.40;95810.00;;;;5032607;28;20213;-79
2023/12/06 05:13:43;;;;;;;1.47;1.23;;;7.10;80.20;5.40;95808.00;;;;5031615;28;20236;-79
2023/12/06 05:16:10;;;;;;;1.33;1.23;;;7.10;80.30;5.40;95811.00;;;;5029231;28;20208;-79
2023/12/06 05:18:39;;;;;;;1.43;1.33;;;7.10;80.30;5.40;95812.00;;;;5033221;28;20201;-78
2023/12/06 05:21:06;;;;;;;1.57;1.23;;;7.10;80.30;5.40;95813.00;;;;5031312;28;20214;-79
2023/12/06 05:23:34;;;;;;;1.30;1.20;;;7.10;80.30;5.40;95816.00;;;;5032032;28;20300;-79
2023/12/06 05:26:02;;;;;;;0.90;0.90;;;7.10;80.30;5.40;95813.00;;;;5034064;28;20198;-79
2023/12/06 05:28:29;;;;;;;1.20;1.10;;;7.10;80.30;5.40;95820.00;;;;5033493;28;20285;-78
2023/12/06 05:30:56;;;;;;;1.80;1.53;;;7.10;80.40;5.40;95816.00;;;;5033272;28;20231;-78
2023/12/06 05:33:23;;;;;;;1.60;1.50;;;7.10;80.30;5.40;95814.00;;;;5033774;28;20670;-78
2023/12/06 05:35:52;;;;;;;2.10;1.83;;;7.10;80.40;5.40;95814.00;;;;5033511;28;20204;-79
2023/12/06 05:38:20;;;;;;;2.30;2.10;;;7.10;80.40;5.40;95816.00;;;;5032393;28;20206;-79
2023/12/06 05:40:54;;;;;;;1.60;1.50;;;7.10;80.40;5.40;95806.00;;;;5031383;28;20217;-79
2023/12/06 05:43:22;;;;;;;1.40;1.30;;;7.10;80.40;5.40;95810.00;;;;5030989;28;20205;-80
2023/12/06 05:45:49;;;;;;;2.70;1.40;;;7.10;80.30;5.40;95812.00;;;;5033529;28;20650;-80
2023/12/06 05:48:16;;;;;;;1.77;1.67;;;7.10;80.30;5.50;95811.00;;;;5026174;28;20724;-79
2023/12/06 05:50:43;;;;;;;1.87;1.53;;;7.10;80.30;5.50;95807.00;;;;5029832;28;20217;-80
2023/12/06 05:53:13;;;;;;;1.50;1.30;;;7.10;80.30;5.50;95808.00;;;;5029249;28;20289;-80
2023/12/06 05:55:40;;;;;;;1.53;1.43;;;7.10;80.20;5.50;95801.00;;;;5028726;28;20202;-79
2023/12/06 05:58:08;;;;;;;1.70;1.50;;;7.10;80.80;5.50;95814.00;;;;5033415;28;20209;-79
2023/12/06 06:00:35;;;;;;;2.60;2.03;;;7.10;80.20;5.50;95823.00;;;;5032617;28;20268;-79
2023/12/06 06:03:02;;;;;;;2.03;1.63;;;7.10;80.20;5.50;95817.00;;;;5032918;28;20193;-80
2023/12/06 06:05:28;;;;;;;2.23;1.43;;;7.10;80.20;5.50;95821.00;;;;5033312;28;20285;-79
2023/12/06 06:07:57;;;;;;;1.93;1.20;;;7.10;80.20;5.50;95809.00;;;;5032941;28;20224;-78
2023/12/06 06:10:26;;;;;;;1.87;1.47;;;7.10;80.20;5.50;95822.00;;;;5032482;28;20574;-79
2023/12/06 06:12:53;;;;;;;2.57;2.37;;;7.10;80.10;5.50;95819.00;;;;5031377;28;20208;-79
2023/12/06 06:15:20;;;;;;;1.53;1.43;;;7.10;80.10;5.50;95820.00;;;;5024764;28;20204;-79
2023/12/06 06:17:49;;;;;;;1.33;1.13;;;7.10;80.20;5.50;95817.00;;;;5036837;28;20634;-80
2023/12/06 06:20:16;;;;;;;2.20;1.33;;;7.10;80.20;5.50;95813.00;;;;5035510;28;20263;-79
2023/12/06 06:22:43;;;;;;;1.33;1.23;;;7.10;80.10;5.50;95818.00;;;;5033663;28;20208;-79
2023/12/06 06:25:10;;;;;;;1.10;0.97;;;7.20;80.30;5.50;95822.00;;;;5036954;28;20205;-79
2023/12/06 06:27:40;;;;;;;1.00;0.90;;;7.10;80.10;5.50;95819.00;;;;5041479;28;20217;-81
2023/12/06 06:30:11;;;;;;;1.47;1.00;;;7.10;80.10;5.50;95815.00;;;;5045596;28;20225;-84
2023/12/06 06:32:39;;;;;;;1.13;1.10;;;7.10;80.00;5.50;95827.00;;;;5049374;28;20260;-82
2023/12/06 06:35:07;;;;;;;1.23;1.10;;;7.10;79.90;5.40;95822.00;;;;5056600;28;20224;-82
2023/12/06 06:37:35;;;;;;;1.47;1.37;;;7.10;80.00;5.40;95828.00;;;;5052160;28;20205;-83
2023/12/06 06:40:07;;;;;;;0.80;0.80;;;7.10;80.10;5.40;95828.00;;;;5046903;28;20197;-84
2023/12/06 06:42:34;;;;;;;1.20;1.10;;;7.10;80.10;5.50;95829.00;;;;5051407;28;20201;-83
2023/12/06 06:45:05;;;;;;;1.40;0.97;;;7.10;80.10;5.50;95831.00;;;;5043454;28;20646;-83
2023/12/06 06:47:32;;;;;;;0.93;0.93;;;7.20;80.20;5.50;95831.00;;;;5033826;28;20221;-82
2023/12/06 06:50:03;;;;;;;1.00;1.00;;;7.20;80.20;5.50;95841.00;;;;5034001;28;20198;-82
2023/12/06 06:52:30;;;;;;;1.40;1.30;;;7.20;80.20;5.50;95849.00;;;;5039262;28;20228;-82
2023/12/06 06:54:58;;;;;;;0.97;0.93;;;7.20;80.10;5.50;95844.00;;;;5044799;28;20296;-83
2023/12/06 06:57:25;;;;;;;2.47;1.37;;;7.20;80.10;5.60;95848.00;;;;5044746;28;20193;-82
2023/12/06 06:59:52;;;;;;;1.20;1.10;;;7.30;80.20;5.60;95851.00;;;;5042679;28;20596;-83
2023/12/06 07:02:21;;;;;;;1.00;1.00;;;7.30;80.20;5.60;95845.00;;;;5038975;28;20194;-84
2023/12/06 07:04:51;;;;;;;1.20;1.10;;;7.30;80.20;5.60;95849.00;;;;5032813;28;20228;-84
2023/12/06 07:07:19;;;;;;;2.13;1.37;;;7.30;80.30;5.60;95853.00;;;;5040569;28;20221;-84
2023/12/06 07:09:46;;;;;;;1.53;1.43;;;7.30;80.20;5.70;95859.00;;;;5042875;28;20202;-83
2023/12/06 07:12:13;;;;;;;1.20;1.10;;;7.40;80.20;5.70;95858.00;;;;5042829;28;20283;-83
2023/12/06 07:14:43;;;;;;;1.53;1.43;;;7.40;80.20;5.70;95853.00;;;;5038432;28;20201;-83
2023/12/06 07:17:10;;;;;;;1.10;1.10;;;7.40;80.10;5.70;95853.00;;;;5042933;28;20205;-82
2023/12/06 07:19:39;;;;;;;1.30;1.20;;;7.40;80.00;5.70;95863.00;;;;5046197;28;20228;-83
2023/12/06 07:22:07;;;;;;;1.73;1.10;;;7.50;80.00;5.80;95861.00;;;;5044527;28;20316;-84
2023/12/06 07:24:34;;;;;;;1.90;1.13;;;7.40;80.00;5.80;95865.00;;;;5050092;28;20197;-84
2023/12/06 07:27:04;;;;;;;1.20;1.10;;;7.50;80.10;5.80;95868.00;;;;5050465;28;20228;-83
2023/12/06 07:29:31;;;;;;;1.30;1.20;;;7.50;80.00;5.80;95868.00;;;;5047865;28;20281;-83
2023/12/06 07:31:59;;;;;;;1.20;1.10;;;7.50;80.00;5.80;95870.00;;;;5038707;28;20217;-83
2023/12/06 07:34:26;;;;;;;1.20;1.10;;;7.60;80.10;5.90;95877.00;;;;5035830;28;20668;-82
2023/12/06 07:36:54;;;;;;;1.20;1.10;;;7.60;80.00;5.90;95874.00;;;;5034937;28;20353;-84
2023/12/06 07:39:22;;;;;;;1.20;1.10;;;7.60;80.00;5.90;95885.00;;;;5035143;28;20208;-84
2023/12/06 07:41:49;;;;;;;1.07;1.00;;;7.60;80.00;6.00;95886.00;;;;5038237;28;20587;-84
2023/12/06 07:44:17;;;;;;;1.03;1.00;;;7.70;80.00;6.00;95882.00;;;;5038551;28;20255;-85
2023/12/06 07:46:48;;;;;;;1.70;1.60;;;7.70;80.00;6.00;95883.00;;;;5033747;28;20186;-84
2023/12/06 07:49:16;;;;;;;1.37;1.27;;;7.70;80.00;6.10;95891.00;;;;5032594;28;20292;-83
2023/12/06 07:51:43;;;;;;;1.70;1.60;;;7.80;79.90;6.10;95890.00;;;;5032638;28;20217;-82
2023/12/06 07:54:12;;;;;;;1.83;1.43;;;7.80;79.70;6.10;95887.00;;;;5031469;28;20227;-83
2023/12/06 07:56:40;;;;;;;1.70;1.60;;;7.80;79.70;6.10;95888.00;;;;5032499;28;20197;-82
2023/12/06 07:59:08;;;;;;;1.53;1.43;;;7.80;79.60;6.10;95897.00;;;;5032749;28;20685;-82
2023/12/06 08:01:36;;;;;;;1.70;1.60;;;7.90;79.50;6.20;95890.00;;;;5033360;28;20244;-82
2023/12/06 08:04:04;;;;;;;1.60;1.50;;;7.90;79.50;6.20;95886.00;;;;5034629;28;20204;-81
2023/12/06 08:06:32;;;;;;;1.53;1.40;;;7.90;79.30;6.20;95888.00;;;;5034154;28;20288;-82
2023/12/06 08:09:00;;;;;;;2.57;2.20;;;7.90;79.20;6.20;95897.00;;;;5038571;28;20227;-81
2023/12/06 08:11:29;;;;;;;3.03;2.10;;;7.90;79.20;6.20;95900.00;;;;5036915;28;20217;-81
2023/12/06 08:13:56;;;;;;;1.53;1.43;;;7.90;79.10;6.20;95904.00;;;;5034293;28;20208;-81
2023/12/06 08:16:23;;;;;;;1.73;1.63;;;8.00;79.20;6.20;95903.00;;;;5035439;28;20221;-82
2023/12/06 08:18:50;;;;;;;2.13;1.93;;;8.00;79.10;6.20;95915.00;;;;5034845;28;20251;-82
2023/12/06 08:21:19;;;;;;;2.03;1.83;;;8.00;79.10;6.20;95915.00;;;;5032846;28;20713;-82
2023/12/06 08:23:48;;;;;;;2.40;2.10;;;8.00;79.00;6.30;95916.00;;;;5032629;28;20221;-82
2023/12/06 08:26:16;;;;;;;1.73;1.63;;;8.00;78.80;6.30;95911.00;;;;5035313;28;20280;-82
2023/12/06 08:28:45;;;;;;;2.57;1.90;;;8.00;78.80;6.30;95917.00;;;;5034555;28;20217;-83
2023/12/06 08:31:13;;;;;;;1.87;1.60;;;8.10;78.90;6.30;95918.00;;;;5034301;28;20239;-84
2023/12/06 08:33:41;;;;;;;2.53;1.43;;;8.10;78.90;6.30;95920.00;;;;5035339;28;20197;-82
2023/12/06 08:36:09;;;;;;;1.50;1.40;;;8.10;79.00;6.40;95918.00;;;;5035777;28;20316;-82
2023/12/06 08:38:36;;;;;;;1.50;1.40;;;8.10;79.00;6.40;95924.00;;;;5034393;28;20248;-83
2023/12/06 08:41:05;;;;;;;1.40;1.30;;;8.10;79.00;6.40;95923.00;;;;5034538;28;20217;-83
2023/12/06 08:43:37;;;;;;;2.17;1.17;;;8.20;79.00;6.40;95928.00;;;;5030581;28;20554;-84
2023/12/06 08:46:07;;;;;;;1.30;1.20;;;8.20;78.90;6.40;95931.00;;;;5032041;28;20256;-83
2023/12/06 08:48:34;;;;;;;3.00;1.60;;;8.20;79.00;6.40;95926.00;;;;5034101;28;20686;-83
2023/12/06 08:51:03;;;;;;;3.03;1.90;;;8.20;78.90;6.50;95939.00;;;;5031459;28;20232;-83
2023/12/06 08:53:30;;;;;;;2.30;1.73;;;8.20;78.90;6.50;95938.00;;;;5033393;28;20219;-84
2023/12/06 08:55:57;;;;;;;3.07;1.40;;;8.20;78.80;6.50;95939.00;;;;5035258;28;20205;-84
2023/12/06 08:58:24;;;;;;;1.10;1.00;;;8.20;78.80;6.50;95946.00;;;;5036399;28;20205;-83
2023/12/06 09:00:52;;;;;;;1.10;1.00;;;8.30;78.90;6.50;95950.00;;;;5041193;28;20216;-86
2023/12/06 09:03:21;;;;;;;1.30;1.13;;;8.30;78.90;6.50;95952.00;;;;5059488;28;20228;-90
2023/12/06 09:05:49;;;;;;;1.43;1.07;;;8.30;78.90;6.60;95948.00;;;;5060552;28;20202;-87
2023/12/06 09:08:16;;;;;;;1.10;1.00;;;8.30;79.10;6.60;95958.00;;;;5060350;28;20209;-88
2023/12/06 09:10:43;;;;;;;1.17;1.07;;;8.30;79.10;6.60;95953.00;;;;5059248;28;20237;-89
2023/12/06 09:13:10;;;;;;;1.53;1.33;;;8.30;79.10;6.60;95956.00;;;;5057285;28;20201;-85
2023/12/06 09:15:37;;;;;;;1.67;1.57;;;8.30;79.30;6.70;95952.00;;;;5041272;28;20234;-84
2023/12/06 09:18:05;;;;;;;1.23;1.17;;;8.40;79.30;6.70;95960.00;;;;5033215;28;20205;-83
2023/12/06 09:20:33;;;;;;;1.47;1.37;;;8.40;79.40;6.80;95955.00;;;;5035924;28;20244;-83
2023/12/06 09:23:01;;;;;;;1.47;1.33;;;8.40;79.40;6.80;95962.00;;;;5038919;28;20647;-83
2023/12/06 09:25:28;;;;;;;1.20;1.10;;;8.40;79.50;6.80;95963.00;;;;5039889;28;20719;-84
2023/12/06 09:27:55;;;;;;;1.20;1.10;;;8.50;79.50;6.90;95970.00;;;;5039659;28;20873;-85
2023/12/06 09:30:22;;;;;;;1.27;1.17;;;8.50;79.60;6.90;95967.00;;;;5037392;28;20300;-84
2023/12/06 09:32:49;;;;;;;1.30;1.20;;;8.50;79.50;6.90;95971.00;;;;5042816;28;20200;-85
2023/12/06 09:35:17;;;;;;;1.50;1.40;;;8.60;79.50;7.00;95977.00;;;;5021583;28;20199;-84
2023/12/06 09:37:46;;;;;;;1.83;1.73;;;8.60;79.50;7.00;95988.00;;;;5034243;28;20197;-85
2023/12/06 09:40:15;;;;;;;1.67;1.20;;;8.60;79.40;7.00;95987.00;;;;5043176;28;20231;-85
2023/12/06 09:42:45;;;;;;;1.70;1.60;;;8.70;79.50;7.00;95983.00;;;;5038776;28;20229;-85
2023/12/06 09:45:15;;;;;;;1.37;1.27;;;8.70;79.30;7.10;95991.00;;;;5038312;28;20225;-85
2023/12/06 09:47:44;;;;;;;1.63;1.20;;;8.70;79.20;7.10;95993.00;;;;5039754;28;20204;-85
2023/12/06 09:50:12;;;;;;;1.20;1.10;;;8.80;79.40;7.10;95993.00;;;;5041527;28;20245;-85
2023/12/06 09:52:39;;;;;;;1.43;1.27;;;8.80;79.50;7.20;95990.00;;;;5041524;28;20201;-84
2023/12/06 09:55:09;;;;;;;1.20;1.10;;;8.80;80.60;7.20;95988.00;;;;5040097;28;20202;-84
2023/12/06 09:57:37;;;;;;;1.63;1.10;;;8.80;79.70;7.30;95986.00;;;;5041639;28;20208;-84
2023/12/06 10:00:05;;;;;;;1.37;0.93;;;8.90;80.10;7.40;96000.00;;;;5039951;28;20225;-85
2023/12/06 10:02:50;;;;;;;1.30;1.20;;;8.90;80.10;7.40;95995.00;;;;5037067;28;20209;-86
2023/12/06 10:05:18;;;;;;;1.43;1.33;;;9.00;79.70;7.50;95999.00;;;;5035378;28;20200;-86
2023/12/06 10:07:48;;;;;;;1.77;1.23;;;9.10;80.30;7.60;95997.00;;;;5032478;28;20209;-86
2023/12/06 10:10:19;;;;;;;1.77;1.67;;;9.10;81.20;7.60;95990.00;;;;5031835;28;20225;-85
2023/12/06 10:12:48;;;;;;;1.70;1.23;;;9.20;80.30;7.70;95992.00;;;;5033575;28;20206;-88
2023/12/06 10:15:22;;;;;;;1.23;1.13;;;9.20;80.30;7.80;95990.00;;;;5041468;28;20201;-86
2023/12/06 10:17:50;;;;;;;1.50;1.40;;;9.30;80.40;7.80;95987.00;;;;5047931;28;20198;-86
2023/12/06 10:20:52;;;;;;;1.33;1.23;;;9.30;80.10;7.90;95995.00;;;;5043510;28;20241;-87
2023/12/06 10:23:22;;;;;;;1.77;1.20;;;9.50;79.40;7.90;95993.00;;;;5053418;28;20197;-86
2023/12/06 10:25:51;;;;;;;1.33;1.27;;;9.50;80.00;7.90;95986.00;;;;5035703;28;20189;-86
2023/12/06 10:28:20;;;;;;;1.47;1.30;;;9.50;79.80;8.00;95984.00;;;;5046114;28;20220;-86
2023/12/06 10:30:47;;;;;;;2.07;1.70;;;9.50;79.80;8.00;95976.00;;;;5034830;28;20308;-86
2023/12/06 10:33:20;;;;;;;1.70;1.60;;;9.60;79.70;8.00;95979.00;;;;5035942;28;20208;-86
2023/12/06 10:35:48;;;;;;;1.90;1.70;;;9.60;79.40;8.10;95975.00;;;;5035107;28;20208;-86
2023/12/06 10:38:17;;;;;;;1.50;1.40;;;9.40;79.40;8.10;95976.00;;;;5030311;28;20213;-85
2023/12/06 10:40:44;;;;;;;1.70;1.60;;;9.70;79.50;8.20;95990.00;;;;5033767;28;20244;-86
2023/12/06 10:43:17;;;;;;;1.60;1.50;;;9.70;79.70;8.20;95986.00;;;;5034206;28;20205;-86
2023/12/06 10:45:47;;;;;;;1.57;1.47;;;9.70;79.20;8.20;95981.00;;;;5029881;28;20197;-85
2023/12/06 10:48:17;;;;;;;1.40;1.30;;;9.70;79.10;8.30;95986.00;;;;5034312;28;20769;-86
2023/12/06 10:50:45;;;;;;;1.60;1.50;;;9.80;79.10;8.30;95980.00;;;;5031997;28;20210;-86
2023/12/06 10:53:16;;;;;;;1.60;1.50;;;9.80;79.30;8.30;95986.00;;;;5011109;28;20213;-86
2023/12/06 10:55:44;;;;;;;2.50;1.63;;;9.80;79.20;8.40;95980.00;;;;5033683;28;20259;-86
2023/12/06 10:58:15;;;;;;;2.53;1.60;;;9.80;79.20;8.40;95981.00;;;;5035705;28;20203;-86
2023/12/06 11:00:45;;;;;;;1.97;1.30;;;9.90;79.20;8.40;95978.00;;;;5040899;28;20217;-85
2023/12/06 11:03:12;;;;;;;1.37;1.27;;;9.90;79.00;8.40;95979.00;;;;5036624;28;20687;-86
2023/12/06 11:05:46;;;;;;;2.27;1.30;;;10.00;79.10;8.50;95981.00;;;;5029747;28;20818;-85
2023/12/06 11:08:35;;;;;;;1.60;1.50;;;10.00;78.90;8.50;95983.00;;;;5033986;28;20315;-85
2023/12/06 11:11:39;;;;;;;1.50;1.40;;;10.00;78.50;8.50;95983.00;;;;5031151;28;20221;-85